createdAt,value
2018-02-25T10:40:59.451Z,2.80
2018-02-25T10:57:36.970Z,3.67
2018-02-25T11:00:07.175Z,3.54
2018-02-25T12:10:18.211Z,5.06
2018-02-25T12:12:49.139Z,4.04
2018-02-25T12:15:18.598Z,4.59
2018-02-25T12:17:47.939Z,5.64
2018-02-25T12:20:18.063Z,5.22
2018-02-25T12:22:47.567Z,4.21
2018-02-25T12:25:17.180Z,3.46
2018-02-25T12:27:46.536Z,3.92
2018-02-25T12:30:15.852Z,3.51
2018-02-25T12:32:45.184Z,4.11
2018-02-25T12:35:14.842Z,4.94
2018-02-25T12:37:44.971Z,5.20
2018-02-25T12:40:15.140Z,4.40
2018-02-25T12:42:44.517Z,4.40
2018-02-25T12:45:14.090Z,4.97
2018-02-25T12:47:43.543Z,5.52
2018-02-25T12:50:12.873Z,4.15
2018-02-25T12:52:42.329Z,3.88
2018-02-25T12:55:19.982Z,4.03
2018-02-25T12:57:52.546Z,4.01
2018-02-25T13:00:25.492Z,3.02
2018-02-25T13:02:57.904Z,2.44
2018-02-25T13:05:29.426Z,2.80
2018-02-25T13:07:58.783Z,2.92
2018-02-25T13:10:28.939Z,4.13
2018-02-25T13:12:58.324Z,4.00
2018-02-25T13:15:27.757Z,3.99
2018-02-25T13:17:57.179Z,2.50
2018-02-25T13:20:27.769Z,2.76
2018-02-25T13:22:57.225Z,3.92
2018-02-25T13:25:27.158Z,4.91
2018-02-25T13:27:57.276Z,5.09
2018-02-25T13:30:27.459Z,5.22
2018-02-25T13:32:57.256Z,3.72
2018-02-25T13:35:30.779Z,3.58
2018-02-25T13:38:00.181Z,4.80
2018-02-25T13:40:30.313Z,4.68
2018-02-25T13:42:59.644Z,5.17
2018-02-25T13:45:31.630Z,4.15
2018-02-25T13:48:13.571Z,3.83
2018-02-25T13:50:43.305Z,3.47
2018-02-25T13:53:13.572Z,3.13
2018-02-25T13:55:43.032Z,2.19
2018-02-25T13:58:12.504Z,2.21
2018-02-25T14:00:42.226Z,3.11
2018-02-25T14:03:14.248Z,3.90
2018-02-25T14:05:43.791Z,2.70
2018-02-25T14:08:23.710Z,2.21
2018-02-25T14:10:59.370Z,1.90
2018-02-25T14:19:10.052Z,2.17
2018-02-25T14:21:40.170Z,1.90
2018-02-25T14:24:09.557Z,1.96
2018-02-25T14:26:39.270Z,2.14
2018-02-25T14:29:08.609Z,1.58
2018-02-25T14:34:33.458Z,2.78
2018-02-25T14:37:07.867Z,3.04
2018-02-25T14:39:37.453Z,2.69
2018-02-25T14:42:15.489Z,2.87
2018-02-25T14:44:46.194Z,3.08
2018-02-25T14:47:15.532Z,3.22
2018-02-25T14:49:44.935Z,2.01
2018-02-25T15:02:49.076Z,0.20
2018-02-25T15:05:19.112Z,0.04
2018-02-25T15:07:50.539Z,0.44
2018-02-25T15:10:20.560Z,0.34
2018-02-25T15:12:52.421Z,0.34
2018-02-25T15:15:22.597Z,1.05
2018-02-25T15:31:50.073Z,0.76
2018-02-25T15:34:19.622Z,0.61
2018-02-25T15:36:49.416Z,0.59
2018-02-25T15:52:48.398Z,0.98
2018-02-25T15:55:32.609Z,0.63
2018-02-25T16:00:35.975Z,0.83
2018-02-25T16:03:05.833Z,1.18
2018-02-25T16:05:35.532Z,0.77
2018-02-25T16:08:05.301Z,0.81
2018-02-25T16:10:35.443Z,0.78
2018-02-25T16:13:04.832Z,0.79
2018-02-25T16:15:35.114Z,0.71
2018-02-25T16:18:04.448Z,1.07
2018-02-25T16:20:48.978Z,1.44
2018-02-25T16:23:18.370Z,1.23
2018-02-25T16:25:47.929Z,1.07
2018-02-25T16:28:17.633Z,0.89
2018-02-25T16:30:47.173Z,0.96
2018-02-25T16:33:16.619Z,1.06
2018-02-25T16:35:46.213Z,0.94
2018-02-25T16:38:15.927Z,0.56
2018-02-25T16:43:44.133Z,-0.05
2018-02-25T16:46:38.315Z,0.26
2018-02-25T16:49:43.183Z,0.29
2018-02-25T16:57:22.536Z,-0.16
2018-02-25T17:18:32.756Z,-0.47
2018-02-25T17:21:05.454Z,-0.56
2018-02-25T17:23:35.029Z,-0.61
2018-02-25T18:07:30.997Z,-0.95
2018-02-25T18:10:00.464Z,-0.64
2018-02-25T18:12:41.912Z,-0.54
2018-02-25T18:15:21.236Z,-0.67
2018-02-25T18:20:54.324Z,-0.61
2018-02-25T18:23:27.603Z,-0.72
2018-02-25T18:25:58.168Z,-0.89
2018-02-25T18:28:28.168Z,-1.06
2018-02-25T18:30:58.014Z,-1.26
2018-02-25T18:33:27.554Z,-1.58
2018-02-25T18:35:57.478Z,-1.57
2018-02-25T18:38:27.171Z,-1.60
2018-02-25T18:40:56.553Z,-1.63
2018-02-25T18:43:33.247Z,-1.55
2018-02-25T18:46:17.721Z,-1.47
2018-02-25T18:48:48.149Z,-1.57
2018-02-25T18:51:17.679Z,-1.64
